Time;durP1;ratioP1;P1;durP2;ratioP2;P2;SDS_P1;SDS_P2;PMS_P1;PMS_P2;Temp;Humidity;BMP_temperature;BMP_pressure;BME280_temperature;BME280_humidity;BME280_pressure;Samples;Min_cycle;Max_cycle;Signal;HPM_P1;HPM_P2
2022/04/27 00:01:17;;;;;;;;;;;;;;;7.07;68.78;102396.78;5033608;28;19917;-33
2022/04/27 00:03:42;;;;;;;;;;;;;;;7.02;68.74;102401.81;5033386;28;20367;-33
2022/04/27 00:06:09;;;;;;;;;;;;;;;6.95;68.78;102398.97;5033437;28;19920;-33
2022/04/27 00:08:34;;;;;;;;;;;;;;;6.91;68.57;102394.94;5033246;28;20019;-33
2022/04/27 00:10:59;;;;;;;;;;;;;;;6.88;68.21;102390.75;5033262;28;19996;-33
2022/04/27 00:13:25;;;;;;;;;;;;;;;6.86;68.23;102387.38;5072716;28;20006;-33
2022/04/27 00:15:50;;;;;;;;;;;;;;;6.85;68.16;102387.56;5116069;28;19911;-33
2022/04/27 00:18:16;;;;;;;;;;;;;;;6.85;68.01;102391.09;5114992;27;19919;-33
2022/04/27 00:20:41;;;;;;;;;;;;;;;6.82;68.06;102386.03;5116076;28;19919;-33
2022/04/27 00:23:06;;;;;;;;;;;;;;;6.77;68.65;102383.00;5116666;28;19911;-33
2022/04/27 00:25:32;;;;;;;;;;;;;;;6.74;68.50;102388.75;5114630;28;19912;-33
2022/04/27 00:27:58;;;;;;;;;;;;;;;6.71;69.49;102378.31;5115833;28;19918;-33
2022/04/27 00:30:23;;;;;;;;;;;;;;;6.71;69.52;102383.69;5116146;28;19911;-33
2022/04/27 00:32:48;;;;;;;;;;;;;;;6.72;68.56;102385.38;5115843;28;20006;-33
2022/04/27 00:35:13;;;;;;;;;;;;;;;6.72;68.86;102393.44;5115530;28;19911;-33
2022/04/27 00:37:38;;;;;;;;;;;;;;;6.71;69.22;102394.44;5115421;28;19950;-33
2022/04/27 00:40:04;;;;;;;;;;;;;;;6.71;68.73;102389.06;5116472;27;20359;-33
2022/04/27 00:42:29;;;;;;;;;;;;;;;6.69;69.35;102399.16;5115530;28;19961;-33
2022/04/27 00:44:54;;;;;;;;;;;;;;;6.68;68.78;102400.16;5115591;28;20010;-33
2022/04/27 00:47:20;;;;;;;;;;;;;;;6.64;69.20;102396.13;5115883;28;19919;-33
2022/04/27 00:49:49;;;;;;;;;;;;;;;6.61;69.61;102396.47;5115367;28;19934;-33
2022/04/27 00:52:15;;;;;;;;;;;;;;;6.54;69.63;102393.59;5115934;28;19935;-33
2022/04/27 00:54:41;;;;;;;;;;;;;;;6.49;69.27;102398.66;5115317;28;20298;-33
2022/04/27 00:57:06;;;;;;;;;;;;;;;6.48;69.58;102396.09;5115904;28;19911;-33
2022/04/27 00:59:31;;;;;;;;;;;;;;;6.48;69.84;102390.72;5115233;28;19911;-33
2022/04/27 01:01:57;;;;;;;;;;;;;;;6.48;70.55;102393.41;5115567;28;19943;-33
2022/04/27 01:04:23;;;;;;;;;;;;;;;6.49;70.44;102408.53;5114785;28;20002;-33
2022/04/27 01:06:48;;;;;;;;;;;;;;;6.45;71.69;102408.03;5115090;28;19912;-33
2022/04/27 01:09:14;;;;;;;;;;;;;;;6.41;71.59;102409.38;5114878;28;20374;-33
2022/04/27 01:11:40;;;;;;;;;;;;;;;6.38;71.06;102418.59;5115126;28;19918;-33
2022/04/27 01:14:05;;;;;;;;;;;;;;;6.36;70.82;102415.25;5115021;28;19916;-33
2022/04/27 01:16:30;;;;;;;;;;;;;;;6.38;70.76;102415.06;5114914;28;19996;-33
2022/04/27 01:18:55;;;;;;;;;;;;;;;6.35;72.25;102410.88;5114852;28;19911;-33
2022/04/27 01:21:22;;;;;;;;;;;;;;;6.36;71.53;102414.41;5115411;28;19912;-33
2022/04/27 01:23:47;;;;;;;;;;;;;;;6.36;71.70;102412.56;5114476;28;19918;-33
2022/04/27 01:26:12;;;;;;;;;;;;;;;6.35;71.58;102415.41;5114534;28;20002;-33
2022/04/27 01:28:38;;;;;;;;;;;;;;;6.28;73.25;102415.22;5114688;28;19912;-33
2022/04/27 01:31:07;;;;;;;;;;;;;;;6.23;72.46;102417.56;5114929;28;19915;-33
2022/04/27 01:33:36;;;;;;;;;;;;;;;6.18;71.27;102423.41;5114588;28;19912;-33
2022/04/27 01:36:02;;;;;;;;;;;;;;;6.14;71.46;102427.41;5114828;28;20282;-33
2022/04/27 01:38:33;;;;;;;;;;;;;;;6.11;71.85;102426.94;5115185;28;19964;-33
2022/04/27 01:40:58;;;;;;;;;;;;;;;6.09;71.26;102418.19;5115121;28;19912;-33
2022/04/27 01:43:26;;;;;;;;;;;;;;;6.04;71.32;102413.28;5114142;28;19919;-33
2022/04/27 01:45:52;;;;;;;;;;;;;;;5.98;71.94;102416.63;5114921;28;19966;-33
2022/04/27 01:48:17;;;;;;;;;;;;;;;5.96;71.38;102423.19;5114630;28;19954;-33
2022/04/27 01:50:43;;;;;;;;;;;;;;;5.93;71.83;102424.34;5114143;28;20010;-33
2022/04/27 01:56:00;;;;;;;;;;;;;;;5.88;72.13;102429.31;5051250;28;20011;-33
2022/04/27 01:58:25;;;;;;;;;;;;;;;5.85;71.70;102419.72;5051435;28;20003;-33
2022/04/27 02:00:51;;;;;;;;;;;;;;;5.81;71.45;102431.81;5051310;28;19912;-33
2022/04/27 02:03:18;;;;;;;;;;;;;;;5.79;72.06;102431.13;5051617;28;20094;-33
2022/04/27 02:05:43;;;;;;;;;;;;;;;5.77;72.02;102435.81;5051308;28;19912;-33
2022/04/27 02:08:09;;;;;;;;;;;;;;;5.78;72.35;102434.81;5051036;28;20320;-33
2022/04/27 02:10:34;;;;;;;;;;;;;;;5.80;72.27;102440.84;5051850;28;19924;-34
2022/04/27 02:13:00;;;;;;;;;;;;;;;5.80;72.00;102437.31;5051019;28;19913;-32
2022/04/27 02:15:26;;;;;;;;;;;;;;;5.82;72.12;102443.41;5051027;28;20416;-32
2022/04/27 02:17:51;;;;;;;;;;;;;;;5.78;72.46;102444.72;5050889;28;19919;-32
2022/04/27 02:20:18;;;;;;;;;;;;;;;5.76;74.28;102450.25;5051049;28;19913;-32
2022/04/27 02:22:43;;;;;;;;;;;;;;;5.69;73.19;102438.47;5051636;28;19919;-32
2022/04/27 02:25:08;;;;;;;;;;;;;;;5.61;72.94;102446.47;5051057;28;20316;-32
2022/04/27 02:27:34;;;;;;;;;;;;;;;5.56;72.84;102446.09;5051762;28;19920;-32
2022/04/27 02:29:59;;;;;;;;;;;;;;;5.55;73.15;102449.78;5057539;28;19916;-32
2022/04/27 02:32:24;;;;;;;;;;;;;;;5.57;72.91;102450.47;5079647;28;19916;-33
2022/04/27 02:34:51;;;;;;;;;;;;;;;5.61;73.02;102451.81;5120927;27;19911;-33
2022/04/27 02:37:16;;;;;;;;;;;;;;;5.65;72.90;102453.19;5121611;28;19955;-33
2022/04/27 02:39:41;;;;;;;;;;;;;;;5.67;73.44;102456.56;5120342;27;19950;-33
2022/04/27 02:42:07;;;;;;;;;;;;;;;5.68;72.97;102455.56;5119770;27;19915;-33
2022/04/27 02:44:32;;;;;;;;;;;;;;;5.69;73.59;102454.56;5120537;27;19912;-33
2022/04/27 02:46:58;;;;;;;;;;;;;;;5.71;73.34;102455.25;5120446;28;19991;-33
2022/04/27 02:52:07;;;;;;;;;;;;;;;5.70;73.63;102461.59;5121124;28;19919;-33
2022/04/27 02:54:33;;;;;;;;;;;;;;;5.72;74.70;102461.47;5120460;27;20044;-33
2022/04/27 02:56:58;;;;;;;;;;;;;;;5.72;74.59;102461.47;5120694;27;19946;-33
2022/04/27 02:59:23;;;;;;;;;;;;;;;5.71;74.39;102457.94;5120141;27;20018;-33
2022/04/27 03:01:48;;;;;;;;;;;;;;;5.69;74.19;102457.25;5121052;28;19912;-33
2022/04/27 03:04:14;;;;;;;;;;;;;;;5.66;73.93;102455.75;5120139;27;19919;-33
2022/04/27 03:06:39;;;;;;;;;;;;;;;5.64;73.51;102457.72;5120527;27;19912;-33
2022/04/27 03:09:04;;;;;;;;;;;;;;;5.63;73.63;102468.63;5120568;27;19915;-33
2022/04/27 03:11:29;;;;;;;;;;;;;;;5.58;73.29;102458.38;5121146;28;19911;-33
2022/04/27 03:13:54;;;;;;;;;;;;;;;5.53;73.32;102463.38;5120035;27;19919;-33
2022/04/27 03:16:20;;;;;;;;;;;;;;;5.51;73.66;102456.47;5120821;27;20378;-33
2022/04/27 03:18:46;;;;;;;;;;;;;;;5.46;73.67;102458.78;5120211;27;19938;-33
2022/04/27 03:21:11;;;;;;;;;;;;;;;5.42;73.81;102459.13;5121054;27;19912;-33
2022/04/27 03:23:36;;;;;;;;;;;;;;;5.40;73.42;102454.88;5120707;27;19972;-33
2022/04/27 03:26:02;;;;;;;;;;;;;;;5.37;74.36;102460.59;5120396;27;19911;-33
2022/04/27 03:28:27;;;;;;;;;;;;;;;5.32;73.87;102469.09;5119100;28;19912;-33
2022/04/27 03:30:53;;;;;;;;;;;;;;;5.28;74.33;102470.41;5120160;27;19961;-33
2022/04/27 03:33:18;;;;;;;;;;;;;;;5.28;75.01;102469.56;5120312;27;19912;-33
2022/04/27 03:35:44;;;;;;;;;;;;;;;5.30;74.63;102471.09;5120077;27;20232;-33
2022/04/27 03:38:09;;;;;;;;;;;;;;;5.28;74.19;102472.25;5120371;27;20048;-33
2022/04/27 03:40:35;;;;;;;;;;;;;;;5.23;74.62;102474.56;5117195;27;19972;-33
2022/04/27 03:43:00;;;;;;;;;;;;;;;5.16;74.04;102468.97;5116463;27;19912;-33
2022/04/27 03:45:25;;;;;;;;;;;;;;;5.11;73.97;102477.47;5117296;28;19911;-33
2022/04/27 03:47:50;;;;;;;;;;;;;;;5.07;74.72;102477.94;5116744;28;19911;-33
2022/04/27 03:50:16;;;;;;;;;;;;;;;5.05;74.61;102474.56;5116760;28;19990;-33
2022/04/27 03:52:42;;;;;;;;;;;;;;;5.02;74.34;102481.06;5116674;28;19911;-33
2022/04/27 03:55:08;;;;;;;;;;;;;;;4.98;74.73;102485.09;5116546;28;19912;-33
2022/04/27 03:57:33;;;;;;;;;;;;;;;4.95;74.78;102482.72;5116228;28;19912;-33
2022/04/27 03:59:58;;;;;;;;;;;;;;;4.92;74.79;102483.00;5117305;28;20010;-36
2022/04/27 04:02:23;;;;;;;;;;;;;;;4.87;74.90;102496.03;5116152;28;19930;-33
2022/04/27 04:04:49;;;;;;;;;;;;;;;4.84;75.49;102491.81;5116960;28;19918;-33
2022/04/27 04:07:14;;;;;;;;;;;;;;;4.83;75.49;102497.31;5116525;28;20010;-33
2022/04/27 04:09:39;;;;;;;;;;;;;;;4.81;75.06;102502.84;5116258;28;19912;-33
2022/04/27 04:12:05;;;;;;;;;;;;;;;4.83;74.91;102497.31;5116147;28;20398;-33
2022/04/27 04:14:30;;;;;;;;;;;;;;;4.83;75.04;102500.00;5116107;28;20011;-33
2022/04/27 04:16:55;;;;;;;;;;;;;;;4.83;75.39;102503.56;5116188;28;19919;-33
2022/04/27 04:19:21;;;;;;;;;;;;;;;4.83;75.65;102506.22;5116067;27;19912;-33
2022/04/27 04:21:46;;;;;;;;;;;;;;;4.81;75.53;102497.47;5116101;28;19912;-33
2022/04/27 04:24:11;;;;;;;;;;;;;;;4.78;75.46;102505.84;5115709;28;19919;-33
2022/04/27 04:29:20;;;;;;;;;;;;;;;4.68;75.52;102505.03;5115696;28;19918;-33
2022/04/27 04:31:46;;;;;;;;;;;;;;;4.58;75.13;102506.94;5116127;28;20359;-33
2022/04/27 04:34:11;;;;;;;;;;;;;;;4.52;75.84;102508.41;5115755;28;19912;-33
2022/04/27 04:36:36;;;;;;;;;;;;;;;4.55;75.44;102518.00;5115797;27;19911;-33
2022/04/27 04:39:01;;;;;;;;;;;;;;;4.60;76.09;102526.41;5116235;28;19988;-33
2022/04/27 04:41:27;;;;;;;;;;;;;;;4.64;75.92;102528.66;5115414;28;20002;-33
2022/04/27 04:43:52;;;;;;;;;;;;;;;4.64;75.44;102530.50;5115511;28;19919;-33
2022/04/27 04:46:17;;;;;;;;;;;;;;;4.63;75.73;102534.13;5115698;28;20371;-33
2022/04/27 04:48:43;;;;;;;;;;;;;;;4.65;75.91;102534.84;5115533;28;19955;-33
2022/04/27 04:51:08;;;;;;;;;;;;;;;4.67;75.83;102538.19;5115196;28;19912;-33
2022/04/27 04:53:34;;;;;;;;;;;;;;;4.70;75.94;102537.91;5113699;28;19915;-33
2022/04/27 04:55:59;;;;;;;;;;;;;;;4.76;75.86;102542.66;5115656;28;19915;-33
2022/04/27 04:58:24;;;;;;;;;;;;;;;4.78;75.91;102551.41;5115256;28;20289;-33
2022/04/27 05:00:49;;;;;;;;;;;;;;;4.79;76.00;102545.06;5115012;28;19934;-33
2022/04/27 05:03:15;;;;;;;;;;;;;;;4.81;76.63;102547.56;5115401;28;19912;-33
2022/04/27 05:05:41;;;;;;;;;;;;;;;4.81;75.99;102548.41;5113666;28;19911;-33
2022/04/27 05:08:07;;;;;;;;;;;;;;;4.82;76.05;102547.41;5115046;28;19912;-33
2022/04/27 05:10:33;;;;;;;;;;;;;;;4.88;75.86;102551.31;5115886;28;19945;-33
2022/04/27 05:12:58;;;;;;;;;;;;;;;4.98;75.94;102559.28;5115613;28;20053;-33
2022/04/27 05:15:23;;;;;;;;;;;;;;;5.05;75.65;102557.69;5114975;27;19911;-34
2022/04/27 05:17:48;;;;;;;;;;;;;;;5.12;76.43;102556.06;5114622;28;19911;-34
2022/04/27 05:20:14;;;;;;;;;;;;;;;5.16;75.72;102565.50;5115415;28;20024;-34
2022/04/27 05:22:39;;;;;;;;;;;;;;;5.19;75.84;102559.00;5114626;28;20007;-34
2022/04/27 05:25:05;;;;;;;;;;;;;;;5.25;75.88;102564.59;5115307;28;20006;-34
2022/04/27 05:27:30;;;;;;;;;;;;;;;5.32;77.07;102565.69;5114990;28;19916;-34
2022/04/27 05:32:40;;;;;;;;;;;;;;;5.49;77.70;102572.00;5115275;28;20012;-34
2022/04/27 05:35:06;;;;;;;;;;;;;;;5.59;77.31;102580.81;5114924;28;19991;-34
2022/04/27 05:37:31;;;;;;;;;;;;;;;5.72;76.65;102579.56;5115076;28;19923;-34
2022/04/27 05:39:56;;;;;;;;;;;;;;;5.83;76.23;102574.78;5112844;28;20010;-34
2022/04/27 05:42:22;;;;;;;;;;;;;;;5.99;77.22;102581.28;5115031;28;19947;-34
2022/04/27 05:44:47;;;;;;;;;;;;;;;6.08;76.56;102577.66;5114411;28;19911;-34
2022/04/27 05:47:12;;;;;;;;;;;;;;;6.14;77.41;102587.75;5114303;28;19912;-34
2022/04/27 05:49:37;;;;;;;;;;;;;;;6.23;76.15;102586.78;5114034;28;19961;-34
2022/04/27 05:52:03;;;;;;;;;;;;;;;6.30;76.22;102587.84;5113717;28;19962;-34
2022/04/27 05:54:28;;;;;;;;;;;;;;;6.41;76.32;102584.88;5113979;28;20335;-34
2022/04/27 05:56:53;;;;;;;;;;;;;;;6.52;76.68;102588.28;5114935;28;19922;-34
2022/04/27 05:59:19;;;;;;;;;;;;;;;6.62;76.74;102587.13;5113990;27;19916;-34
2022/04/27 06:01:45;;;;;;;;;;;;;;;6.76;76.36;102592.91;5114829;28;19915;-34
2022/04/27 06:04:10;;;;;;;;;;;;;;;6.86;75.46;102588.22;5113771;28;19923;-34
2022/04/27 06:06:36;;;;;;;;;;;;;;;6.97;76.72;102595.97;5114084;28;19934;-34
2022/04/27 06:09:01;;;;;;;;;;;;;;;7.08;76.11;102594.84;5114120;28;20053;-34
2022/04/27 06:11:26;;;;;;;;;;;;;;;7.14;75.14;102600.41;5114604;28;19961;-34
2022/04/27 06:13:52;;;;;;;;;;;;;;;7.23;75.99;102598.56;5114238;27;19955;-34
2022/04/27 06:16:17;;;;;;;;;;;;;;;7.33;76.34;102601.09;5114775;28;20014;-34
2022/04/27 06:18:42;;;;;;;;;;;;;;;7.37;75.51;102605.13;5114424;28;19911;-34
2022/04/27 06:21:08;;;;;;;;;;;;;;;7.40;74.91;102605.63;5113994;28;20023;-34
2022/04/27 06:23:33;;;;;;;;;;;;;;;7.42;75.10;102603.63;5113929;28;19972;-34
2022/04/27 06:25:59;;;;;;;;;;;;;;;7.44;75.88;102611.53;5113296;28;19955;-34
2022/04/27 06:28:24;;;;;;;;;;;;;;;7.53;75.85;102617.78;5114789;28;19919;-34
2022/04/27 06:30:49;;;;;;;;;;;;;;;7.63;75.77;102619.28;5114727;28;19957;-34
2022/04/27 06:33:14;;;;;;;;;;;;;;;7.75;75.77;102615.22;5112564;28;19912;-34
2022/04/27 06:35:40;;;;;;;;;;;;;;;7.86;75.95;102614.06;5114218;28;19962;-34
2022/04/27 06:38:07;;;;;;;;;;;;;;;7.96;76.11;102625.50;5113790;28;19919;-34
2022/04/27 06:40:33;;;;;;;;;;;;;;;8.02;75.95;102617.75;5113778;28;19964;-34
2022/04/27 06:42:58;;;;;;;;;;;;;;;8.07;75.74;102621.59;5113731;28;19915;-34
2022/04/27 06:45:27;;;;;;;;;;;;;;;8.06;74.89;102619.94;5113450;28;20391;-34
2022/04/27 06:47:52;;;;;;;;;;;;;;;8.06;75.85;102621.78;5113688;28;19912;-34
2022/04/27 06:50:18;;;;;;;;;;;;;;;8.11;76.49;102627.50;5114473;28;19987;-34
2022/04/27 06:52:45;;;;;;;;;;;;;;;8.18;76.08;102628.50;5113681;28;20345;-34
2022/04/27 06:55:11;;;;;;;;;;;;;;;8.19;75.40;102630.16;5113718;28;19912;-34
2022/04/27 06:57:36;;;;;;;;;;;;;;;8.29;75.56;102638.06;5113314;28;19912;-34
2022/04/27 07:00:02;;;;;;;;;;;;;;;8.46;76.79;102632.50;5113886;28;19911;-34
2022/04/27 07:02:28;;;;;;;;;;;;;;;8.68;76.22;102635.44;5113296;28;19912;-34
2022/04/27 07:04:59;;;;;;;;;;;;;;;8.85;74.09;102639.75;5114295;28;20010;-34
2022/04/27 07:07:24;;;;;;;;;;;;;;;8.99;74.42;102633.63;5113099;28;19920;-34
2022/04/27 07:09:50;;;;;;;;;;;;;;;9.02;73.51;102640.50;5113785;28;19926;-34
2022/04/27 07:12:15;;;;;;;;;;;;;;;8.97;72.52;102629.41;5114245;28;19912;-34
2022/04/27 07:14:40;;;;;;;;;;;;;;;8.98;72.86;102640.03;5114015;28;20339;-34
2022/04/27 07:17:05;;;;;;;;;;;;;;;9.00;73.32;102640.69;5117555;28;19911;-34
2022/04/27 07:19:30;;;;;;;;;;;;;;;9.06;73.28;102643.69;5117330;28;20337;-34
2022/04/27 07:21:56;;;;;;;;;;;;;;;9.13;73.06;102637.44;5118077;28;19934;-34
2022/04/27 07:24:21;;;;;;;;;;;;;;;9.11;69.79;102639.44;5117248;28;19949;-34
2022/04/27 07:26:46;;;;;;;;;;;;;;;9.07;68.68;102646.22;5117214;28;19951;-34
2022/04/27 07:29:12;;;;;;;;;;;;;;;9.01;69.70;102658.56;5117089;28;19923;-34
2022/04/27 07:31:37;;;;;;;;;;;;;;;9.09;69.84;102648.75;5117123;28;19918;-34
2022/04/27 07:34:02;;;;;;;;;;;;;;;9.24;70.97;102650.50;5117069;28;20354;-34
2022/04/27 07:36:27;;;;;;;;;;;;;;;9.39;69.08;102649.75;5117058;28;19912;-34
2022/04/27 07:38:52;;;;;;;;;;;;;;;9.42;67.23;102652.94;5116609;28;20014;-34
2022/04/27 07:41:18;;;;;;;;;;;;;;;9.50;67.50;102658.25;5116869;28;19911;-34
2022/04/27 07:43:43;;;;;;;;;;;;;;;9.61;68.41;102653.44;5116089;28;19916;-34
2022/04/27 07:46:09;;;;;;;;;;;;;;;9.76;68.60;102657.03;5117115;28;19959;-34
2022/04/27 07:48:35;;;;;;;;;;;;;;;9.88;68.29;102658.31;5116691;28;19923;-35
2022/04/27 07:51:00;;;;;;;;;;;;;;;10.00;68.30;102653.28;5116736;28;19911;-35
2022/04/27 07:53:26;;;;;;;;;;;;;;;10.08;65.87;102653.22;5116413;27;19911;-35
2022/04/27 07:55:51;;;;;;;;;;;;;;;10.11;65.18;102657.44;5116900;28;20010;-34
2022/04/27 07:58:16;;;;;;;;;;;;;;;10.15;65.42;102656.88;5116351;28;20421;-34
2022/04/27 08:00:41;;;;;;;;;;;;;;;10.29;65.72;102666.06;5116877;28;19912;-34
2022/04/27 08:03:07;;;;;;;;;;;;;;;10.28;60.37;102672.50;5116542;28;19964;-34
2022/04/27 08:05:32;;;;;;;;;;;;;;;10.37;63.10;102660.56;5117173;28;20005;-34
2022/04/27 08:07:58;;;;;;;;;;;;;;;10.45;62.33;102667.75;5116352;28;20344;-35
2022/04/27 08:10:23;;;;;;;;;;;;;;;10.54;62.79;102669.31;5116179;28;19918;-34
2022/04/27 08:12:49;;;;;;;;;;;;;;;10.61;61.73;102674.84;5116054;28;19912;-34
2022/04/27 08:15:19;;;;;;;;;;;;;;;10.71;60.85;102678.13;5114681;28;20010;-34
2022/04/27 08:17:51;;;;;;;;;;;;;;;10.87;62.57;102672.50;5116212;28;19916;-34
2022/04/27 08:23:10;;;;;;;;;;;;;;;10.80;57.02;102677.81;5013788;28;20004;-34
2022/04/27 08:25:36;;;;;;;;;;;;;;;10.78;56.00;102685.31;5013215;28;20474;-34
2022/04/27 08:28:05;;;;;;;;;;;;;;;10.80;53.94;102683.25;5013901;28;20000;-34
2022/04/27 08:30:31;;;;;;;;;;;;;;;10.93;58.77;102682.59;5013842;28;19914;-34
2022/04/27 08:32:59;;;;;;;;;;;;;;;11.02;59.21;102678.72;5013549;28;20412;-34
2022/04/27 08:35:25;;;;;;;;;;;;;;;11.18;59.38;102684.97;5013365;28;19968;-34
2022/04/27 08:37:50;;;;;;;;;;;;;;;11.36;59.80;102682.66;5013116;28;20004;-34
2022/04/27 08:40:15;;;;;;;;;;;;;;;11.47;55.25;102687.59;5013250;28;19913;-34
2022/04/27 08:42:40;;;;;;;;;;;;;;;11.60;58.17;102689.59;5013089;28;20004;-34
2022/04/27 08:45:06;;;;;;;;;;;;;;;11.57;55.16;102690.81;5013602;28;19913;-34
2022/04/27 08:47:32;;;;;;;;;;;;;;;11.64;55.90;102690.06;5013334;28;19950;-34
2022/04/27 08:49:57;;;;;;;;;;;;;;;11.23;53.21;102694.19;5013443;28;19913;-34
2022/04/27 08:52:24;;;;;;;;;;;;;;;11.31;54.84;102691.34;5012868;28;19913;-34
2022/04/27 08:54:50;;;;;;;;;;;;;;;11.41;56.01;102688.34;5013022;28;20486;-34
2022/04/27 08:57:15;;;;;;;;;;;;;;;11.56;56.75;102693.72;5012851;28;19914;-34
2022/04/27 08:59:40;;;;;;;;;;;;;;;11.76;56.55;102688.47;5040331;28;19919;-34
2022/04/27 09:02:24;;;;;;;;;;;;;;;11.97;56.37;102687.69;5115617;28;19912;-34
2022/04/27 09:05:06;;;;;;;;;;;;;;;12.12;53.80;102691.16;5115702;28;19919;-34
2022/04/27 09:07:51;;;;;;;;;;;;;;;12.22;54.74;102688.94;5115400;28;19913;-34
2022/04/27 09:10:18;;;;;;;;;;;;;;;12.25;52.84;102698.53;5114869;28;19912;-34
2022/04/27 09:12:55;;;;;;;;;;;;;;;12.33;53.90;102690.25;5115789;28;19912;-34
2022/04/27 09:15:21;;;;;;;;;;;;;;;12.40;54.02;102684.91;5114997;28;19965;-34
2022/04/27 09:20:47;;;;;;;;;;;;;;;12.62;51.17;102689.19;5115375;28;19949;-34
2022/04/27 09:23:26;;;;;;;;;;;;;;;12.82;51.12;102687.44;5115230;27;19931;-34
2022/04/27 09:25:52;;;;;;;;;;;;;;;13.00;51.76;102686.06;5115247;28;19953;-34
2022/04/27 09:28:18;;;;;;;;;;;;;;;13.22;53.50;102686.78;5115365;28;19941;-34
2022/04/27 09:30:44;;;;;;;;;;;;;;;13.45;53.14;102679.13;5115436;28;19911;-35
2022/04/27 09:33:09;;;;;;;;;;;;;;;13.62;51.35;102690.47;5114677;28;19957;-35
2022/04/27 09:35:35;;;;;;;;;;;;;;;13.42;48.67;102682.28;5115252;28;19915;-35
2022/04/27 09:38:14;;;;;;;;;;;;;;;13.57;51.74;102687.53;5113674;28;20385;-35
2022/04/27 09:40:44;;;;;;;;;;;;;;;13.80;51.27;102687.13;5114739;28;19911;-35
2022/04/27 09:43:12;;;;;;;;;;;;;;;13.94;51.00;102685.25;5114215;28;20000;-35
2022/04/27 09:45:37;;;;;;;;;;;;;;;14.12;50.98;102680.88;5114482;28;19911;-35
2022/04/27 09:48:06;;;;;;;;;;;;;;;14.25;49.77;102681.91;5114453;28;20409;-35
2022/04/27 09:50:47;;;;;;;;;;;;;;;14.36;46.31;102693.00;5114497;28;20014;-35
2022/04/27 09:53:13;;;;;;;;;;;;;;;14.28;46.58;102686.94;5114394;28;20065;-35
2022/04/27 09:55:43;;;;;;;;;;;;;;;14.08;46.49;102685.06;5115008;28;20374;-35
2022/04/27 09:58:11;;;;;;;;;;;;;;;14.21;47.33;102677.94;5113976;28;19915;-35
2022/04/27 10:00:37;;;;;;;;;;;;;;;14.27;46.56;102690.69;5114289;28;20014;-35
2022/04/27 10:03:02;;;;;;;;;;;;;;;14.21;49.16;102686.09;5115111;28;19962;-35
2022/04/27 10:05:28;;;;;;;;;;;;;;;14.08;48.94;102685.06;5114338;28;20096;-32
2022/04/27 10:07:54;;;;;;;;;;;;;;;14.16;47.34;102687.56;5114825;28;19918;-34
2022/04/27 10:10:19;;;;;;;;;;;;;;;14.01;46.27;102683.41;5114201;28;19964;-35
2022/04/27 10:12:46;;;;;;;;;;;;;;;13.80;46.18;102693.41;5114078;28;20363;-35
2022/04/27 10:15:11;;;;;;;;;;;;;;;13.54;46.35;102696.91;5114397;28;19912;-33
2022/04/27 10:17:37;;;;;;;;;;;;;;;13.34;48.27;102677.84;5114100;28;19930;-34
2022/04/27 10:20:22;;;;;;;;;;;;;;;13.56;50.67;102683.94;5114535;28;19957;-34
2022/04/27 10:22:47;;;;;;;;;;;;;;;13.85;47.53;102679.19;5114141;28;19919;-34
2022/04/27 10:25:13;;;;;;;;;;;;;;;14.10;45.96;102682.09;5112734;28;20017;-34
2022/04/27 10:27:40;;;;;;;;;;;;;;;14.16;46.41;102682.13;5113383;28;19915;-34
2022/04/27 10:30:09;;;;;;;;;;;;;;;14.30;46.50;102672.06;5114074;28;19974;-34
2022/04/27 10:32:37;;;;;;;;;;;;;;;14.43;47.37;102673.91;5114317;28;20378;-33
2022/04/27 10:35:11;;;;;;;;;;;;;;;14.68;46.71;102666.75;5114181;28;19919;-33
2022/04/27 10:37:43;;;;;;;;;;;;;;;14.93;47.54;102671.50;5114228;28;19919;-34
2022/04/27 10:40:29;;;;;;;;;;;;;;;15.16;47.74;102660.09;5113865;28;20052;-33
2022/04/27 10:43:00;;;;;;;;;;;;;;;15.33;44.55;102660.44;5114039;28;19961;-34
2022/04/27 10:45:25;;;;;;;;;;;;;;;15.24;42.76;102667.19;5114224;28;20309;-34
2022/04/27 10:47:50;;;;;;;;;;;;;;;15.11;42.56;102673.53;5113803;28;20029;-34
2022/04/27 10:50:17;;;;;;;;;;;;;;;15.14;45.19;102668.47;5117083;28;20363;-34
2022/04/27 10:52:52;;;;;;;;;;;;;;;15.13;46.43;102668.72;5117793;28;19912;-34
2022/04/27 10:55:35;;;;;;;;;;;;;;;15.08;45.04;102663.91;5117415;28;19923;-33
2022/04/27 10:58:12;;;;;;;;;;;;;;;15.28;46.54;102668.44;5118367;28;19919;-33
2022/04/27 11:00:56;;;;;;;;;;;;;;;15.66;45.75;102661.09;5117396;28;19923;-34
2022/04/27 11:03:21;;;;;;;;;;;;;;;15.76;44.87;102665.19;5117789;28;19912;-33
2022/04/27 11:05:47;;;;;;;;;;;;;;;15.76;44.89;102662.47;5115874;28;20313;-34
2022/04/27 11:08:38;;;;;;;;;;;;;;;15.63;43.51;102661.50;5117195;28;19911;-33
2022/04/27 11:11:07;;;;;;;;;;;;;;;15.58;43.90;102663.19;5117849;28;20451;-33
2022/04/27 11:13:34;;;;;;;;;;;;;;;15.68;44.87;102658.97;5117708;28;19911;-34
2022/04/27 11:16:10;;;;;;;;;;;;;;;15.94;45.14;102654.34;5116508;28;20275;-34
2022/04/27 11:18:55;;;;;;;;;;;;;;;16.24;45.14;102662.66;5117257;28;20379;-34
2022/04/27 11:21:21;;;;;;;;;;;;;;;16.48;44.62;102655.50;5117237;28;20002;-34
2022/04/27 11:23:46;;;;;;;;;;;;;;;16.44;42.70;102666.03;5117193;28;20003;-34
2022/04/27 11:26:13;;;;;;;;;;;;;;;16.52;42.21;102655.88;5117138;28;19912;-35
2022/04/27 11:28:39;;;;;;;;;;;;;;;16.62;42.45;102657.03;5117091;28;19968;-35
2022/04/27 11:31:05;;;;;;;;;;;;;;;16.69;42.59;102656.97;5115822;28;20305;-35
2022/04/27 11:33:31;;;;;;;;;;;;;;;16.62;42.77;102658.94;5116799;28;19911;-34
2022/04/27 11:35:56;;;;;;;;;;;;;;;16.36;43.96;102665.50;5116894;28;20386;-34
2022/04/27 11:38:32;;;;;;;;;;;;;;;15.98;41.76;102665.66;5116611;28;19912;-35
2022/04/27 11:40:57;;;;;;;;;;;;;;;15.83;43.97;102665.97;5117506;28;19911;-34
2022/04/27 11:43:27;;;;;;;;;;;;;;;15.90;44.91;102667.59;5117063;28;19918;-34
2022/04/27 11:45:53;;;;;;;;;;;;;;;15.97;42.20;102664.81;5117028;28;19934;-35
2022/04/27 11:48:21;;;;;;;;;;;;;;;15.58;41.39;102657.75;5117119;28;19959;-35
2022/04/27 11:50:48;;;;;;;;;;;;;;;15.87;43.95;102661.75;5116464;28;19912;-35
2022/04/27 11:53:13;;;;;;;;;;;;;;;16.00;44.43;102656.16;5117098;28;19915;-34
2022/04/27 11:55:39;;;;;;;;;;;;;;;15.99;42.58;102657.25;5117578;28;20010;-34
2022/04/27 11:58:05;;;;;;;;;;;;;;;16.02;43.83;102659.53;5116408;28;20325;-35
2022/04/27 12:00:31;;;;;;;;;;;;;;;16.21;43.19;102663.16;5116924;28;19927;-35
2022/04/27 12:03:03;;;;;;;;;;;;;;;16.47;43.69;102662.03;5116285;28;19947;-35
2022/04/27 12:05:30;;;;;;;;;;;;;;;16.70;43.86;102661.38;5116788;27;20002;-35
2022/04/27 12:07:55;;;;;;;;;;;;;;;16.83;41.61;102663.13;5116749;28;19912;-35
2022/04/27 12:10:21;;;;;;;;;;;;;;;16.95;42.97;102653.09;5116382;28;19912;-35
2022/04/27 12:12:46;;;;;;;;;;;;;;;17.15;43.31;102653.66;5116369;28;19991;-35
2022/04/27 12:15:15;;;;;;;;;;;;;;;17.13;41.66;102644.88;5115799;28;19922;-35
2022/04/27 12:17:42;;;;;;;;;;;;;;;17.39;41.46;102648.31;5116242;28;19912;-35
2022/04/27 12:20:08;;;;;;;;;;;;;;;17.50;39.76;102650.22;5116995;28;19915;-35
2022/04/27 12:22:33;;;;;;;;;;;;;;;17.22;40.33;102646.19;5115716;28;19919;-35
2022/04/27 12:25:07;;;;;;;;;;;;;;;16.98;40.49;102652.63;5116421;28;19976;-35
2022/04/27 12:27:33;;;;;;;;;;;;;;;16.99;41.43;102659.78;5115811;28;19922;-34
2022/04/27 12:30:04;;;;;;;;;;;;;;;16.72;41.34;102653.78;5116260;28;19911;-35
2022/04/27 12:32:32;;;;;;;;;;;;;;;16.47;42.51;102656.56;5116505;28;20260;-34
2022/04/27 12:37:49;;;;;;;;;;;;;;;16.40;43.06;102651.19;5116262;28;19919;-34
2022/04/27 12:40:15;;;;;;;;;;;;;;;16.42;43.50;102648.22;5116259;28;20355;-34
2022/04/27 12:42:59;;;;;;;;;;;;;;;15.93;42.75;102647.22;5115556;28;19956;-35
2022/04/27 12:45:25;;;;;;;;;;;;;;;15.81;44.11;102643.53;5115864;28;19916;-34
2022/04/27 12:47:51;;;;;;;;;;;;;;;15.70;44.07;102635.00;5115782;28;20003;-34
2022/04/27 12:50:16;;;;;;;;;;;;;;;15.68;44.40;102639.88;5115710;28;19958;-34
2022/04/27 12:52:43;;;;;;;;;;;;;;;15.59;44.26;102632.16;5116219;28;19961;-34
2022/04/27 12:55:12;;;;;;;;;;;;;;;15.55;43.93;102634.47;5115551;28;20002;-35
2022/04/27 12:57:44;;;;;;;;;;;;;;;15.56;43.79;102636.13;5116154;28;19919;-34
2022/04/27 13:00:09;;;;;;;;;;;;;;;15.11;43.46;102640.81;5115515;28;19911;-34